https://wetter-ruppersthal.at
Wetterdaten: aktuell Freitag, 22.11.2019 19:45
Datum Zeit Temp. A. Feuchte A. Luftdruck Regen Wind Richtung Richtung Sonnenschein T Regen ET UV Solar Taupunkt Windchill Windben Empfang
22.11.2019 19:45 8,3 C 93 % 1011,2 hPa 0,0 l/m 17,7 km/h (3 Bft) SO 135 0 min 0 min 0,025 mm 0,0 UV-I 0 W/m 7,2 C 5,5 C 29,0 km/h (5 Bft) 100,00 %
22.11.2019 18:45 8,3 C 92 % 1011,4 hPa 0,0 l/m 17,7 km/h (3 Bft) SO 135 0 min 0 min 0,025 mm 0,0 UV-I 0 W/m 7,1 C 5,5 C 29,0 km/h (5 Bft) 100,00 %
22.11.2019 17:45 7,9 C 92 % 1011,2 hPa 0,0 l/m 14,5 km/h (3 Bft) SO 135 0 min 0 min 0,025 mm 0,0 UV-I 0 W/m 6,7 C 5,4 C 24,1 km/h (4 Bft) 100,00 %
22.11.2019 16:45 8,1 C 90 % 1010,9 hPa 0,0 l/m 11,3 km/h (2 Bft) SO 135 0 min 0 min 0,025 mm 0,0 UV-I 0 W/m 6,6 C 6,1 C 20,9 km/h (4 Bft) 100,00 %
22.11.2019 15:45 9,1 C 87 % 1010,8 hPa 0,0 l/m 11,3 km/h (2 Bft) SO 135 25 min 0 min 0,102 mm 0,0 UV-I 15 W/m 7,1 C 7,3 C 24,1 km/h (4 Bft) 100,00 %
22.11.2019 14:45 10,3 C 85 % 1010,9 hPa 0,0 l/m 14,5 km/h (3 Bft) SO 135 60 min 0 min 0,152 mm 0,0 UV-I 114 W/m 7,9 C 10,3 C 25,7 km/h (4 Bft) 100,00 %
22.11.2019 13:45 11,1 C 82 % 1010,8 hPa 0,0 l/m 14,5 km/h (3 Bft) SO 135 60 min 0 min 0,152 mm 0,0 UV-I 228 W/m 8,1 C 11,1 C 25,7 km/h (4 Bft) 100,00 %
22.11.2019 12:45 11,3 C 82 % 1011,1 hPa 0,0 l/m 16,1 km/h (3 Bft) SO 135 60 min 0 min 0,127 mm 0,5 UV-I 276 W/m 8,3 C 11,3 C 30,6 km/h (5 Bft) 100,00 %
22.11.2019 11:45 10,7 C 85 % 1011,5 hPa 0,0 l/m 14,5 km/h (3 Bft) SO 135 60 min 0 min 0,102 mm 0,5 UV-I 266 W/m 8,3 C 10,7 C 24,1 km/h (4 Bft) 100,00 %
22.11.2019 10:45 9,8 C 93 % 1011,8 hPa 0,0 l/m 9,7 km/h (2 Bft) SO 135 40 min 0 min 0,051 mm 0,5 UV-I 304 W/m 8,7 C 8,4 C 19,3 km/h (3 Bft) 100,00 %
22.11.2019 09:45 8,3 C 95 % 1011,9 hPa 0,0 l/m 11,3 km/h (2 Bft) O-SO 112 0 min 0 min 0,025 mm 0,0 UV-I 103 W/m 7,5 C 6,4 C 24,1 km/h (4 Bft) 100,00 %
22.11.2019 08:45 7,6 C 97 % 1011,9 hPa 0,0 l/m 8,0 km/h (2 Bft) SO 135 0 min 0 min 0,000 mm 0,0 UV-I 72 W/m 7,2 C 6,2 C 17,7 km/h (3 Bft) 100,00 %
22.11.2019 07:45 7,0 C 98 % 1011,4 hPa 0,0 l/m 9,7 km/h (2 Bft) O-SO 112 0 min 0 min 0,000 mm 0,0 UV-I 16 W/m 6,7 C 5,1 C 22,5 km/h (4 Bft) 100,00 %
22.11.2019 06:45 6,9 C 97 % 1011,0 hPa 0,0 l/m 9,7 km/h (2 Bft) O-SO 112 0 min 0 min 0,000 mm 0,0 UV-I 0 W/m 6,5 C 5,0 C 14,5 km/h (3 Bft) 100,00 %
22.11.2019 05:45 7,1 C 96 % 1011,2 hPa 0,2 l/m 6,4 km/h (2 Bft) O-SO 112 0 min 5 min 0,000 mm 0,0 UV-I 0 W/m 6,5 C 6,0 C 16,1 km/h (3 Bft) 100,00 %
22.11.2019 04:45 6,7 C 96 % 1010,9 hPa 0,0 l/m 3,2 km/h (1 Bft) O 90 0 min 0 min 0,000 mm 0,0 UV-I 0 W/m 6,1 C 6,7 C 11,3 km/h (2 Bft) 100,00 %
22.11.2019 03:45 6,1 C 94 % 1010,8 hPa 0,0 l/m 1,6 km/h (1 Bft) O 90 0 min 0 min 0,000 mm 0,0 UV-I 0 W/m 5,2 C 6,1 C 4,8 km/h (1 Bft) 100,00 %
22.11.2019 02:45 7,4 C 93 % 1011,0 hPa 0,0 l/m 1,6 km/h (1 Bft) SO 135 0 min 0 min 0,000 mm 0,0 UV-I 0 W/m 6,3 C 7,4 C 4,8 km/h (1 Bft) 100,00 %
22.11.2019 01:45 8,2 C 93 % 1011,1 hPa 0,0 l/m 4,8 km/h (1 Bft) SO 135 0 min 0 min 0,000 mm 0,0 UV-I 0 W/m 7,1 C 7,8 C 11,3 km/h (2 Bft) 100,00 %
22.11.2019 00:45 7,8 C 96 % 1010,9 hPa 0,0 l/m 6,4 km/h (2 Bft) SO 135 0 min 0 min 0,000 mm 0,0 UV-I 0 W/m 7,2 C 6,8 C 12,9 km/h (3 Bft) 100,00 %
22.11.2019 00:00 7,4 C 99 % 1010,9 hPa 0,0 l/m 6,4 km/h (2 Bft) O-SO 112 0 min 0 min 0,000 mm 0,0 UV-I 0 W/m 7,3 C 6,4 C 11,3 km/h (2 Bft) 100,00 %
_ Min-Zeit 03:45 13:15 13:55 - 02:05 - - - - - - - 03:40 07:25 02:10 18:20
Minimum _ 6,1 C 81 % 1010,7 hPa - 0,0 km/h (0 Bft) - - - - - - - 5,0 C 4,7 C 1,6 km/h (1 Bft) 85,09 %
_ Max-Zeit 12:10 00:00 09:55 05:30 13:15 - - 10:05 05:30 13:00 11:50 10:45 11:05 12:10 14:35 00:00
Maximum _ 11,4 C 99 % 1012,0 hPa 0,2 l/m 17,7 km/h
SO (3 Bft)
- - 5 min 5 min 0,152 mm 0,6 UV-I 304 W/m 8,7 C 11,4 C 33,8 km/h
S-SO (5 Bft)
100,00 %
Durchschnitt _ 8,4 C 92 % 1011,2 hPa #0,2 l/m 9,5 km/h (2 Bft) SO - #5:05 h #5 min. #0,811 mm 0,5 UV-I 153 W/m 7,2 C 7,4 C 19,0 km/h (3 Bft) 99,94 %

Manfred Kirchner